Runnells, Iowa
Current Conditions -  °F | °C
As of 2:54 PM on Tuesday 27 Jan 2015 (Local Time) from KDSM Reporting Station
Few Clouds Few Clouds  
Wind Chill: 42°   Ceiling: Unl
Heat Index: 46°   Visibility: 10mi
Dew Point: 30°   Wind: 7mph
Humidity: 54%   Direction: 110°ESE
Pressure: 30.13"   Gusts: NA
Location:  41.51°N, 93.36°W
Report Text: KDSM 272054Z 11006KT 10SM FEW020 FEW250 08/M01 A3013 RMK AO2 SLP211 T00781011 56011
Loading
Personal Weather Stations






























Interactive Weather Map New forecast layout! Learn more

10-Day Weather Forecast

Advertisements
Track Severe Weather on mobile